Time;durP1;ratioP1;P1;durP2;ratioP2;P2;SDS_P1;SDS_P2;PMS_P1;PMS_P2;Temp;Humidity;BMP_temperature;BMP_pressure;BME280_temperature;BME280_humidity;BME280_pressure;Samples;Min_cycle;Max_cycle;Signal;HPM_P1;HPM_P2
2023/08/15 00:00:52;;;;;;;3.37;3.03;;;23.80;99.90;;;;;;5070775;28;20217;-51
2023/08/15 00:03:19;;;;;;;3.67;3.40;;;23.80;99.90;;;;;;5071285;28;20209;-51
2023/08/15 00:05:46;;;;;;;3.63;3.30;;;23.90;99.90;;;;;;5071604;28;20802;-51
2023/08/15 00:08:14;;;;;;;3.30;3.20;;;23.90;99.90;;;;;;5069914;28;20255;-51
2023/08/15 00:10:41;;;;;;;3.37;3.27;;;23.90;99.90;;;;;;5071080;28;20600;-51
2023/08/15 00:13:08;;;;;;;3.33;3.17;;;23.80;99.90;;;;;;5071199;28;20197;-51
2023/08/15 00:15:36;;;;;;;3.57;3.37;;;23.70;99.90;;;;;;5070721;28;20227;-51
2023/08/15 00:18:03;;;;;;;3.83;3.53;;;23.60;99.90;;;;;;5065431;28;20582;-51
2023/08/15 00:20:30;;;;;;;4.50;4.20;;;23.60;99.90;;;;;;5069892;28;20224;-51
2023/08/15 00:22:57;;;;;;;4.57;4.20;;;23.60;99.90;;;;;;5070714;28;20201;-50
2023/08/15 00:25:26;;;;;;;3.27;3.17;;;23.60;99.90;;;;;;5069477;28;20201;-51
2023/08/15 00:27:53;;;;;;;3.20;3.00;;;23.60;99.90;;;;;;5069838;28;20243;-51
2023/08/15 00:30:20;;;;;;;3.90;3.60;;;23.60;99.90;;;;;;5070943;28;20703;-51
2023/08/15 00:32:47;;;;;;;3.90;3.80;;;23.50;99.90;;;;;;5070850;28;20720;-51
2023/08/15 00:35:14;;;;;;;3.40;3.00;;;23.50;99.90;;;;;;5068992;28;20270;-51
2023/08/15 00:37:41;;;;;;;5.50;4.90;;;23.40;99.90;;;;;;5069273;28;21044;-51
2023/08/15 00:40:09;;;;;;;4.13;3.83;;;23.40;99.90;;;;;;5064074;28;20237;-51
2023/08/15 00:42:38;;;;;;;3.07;2.87;;;23.30;99.90;;;;;;5056561;28;20259;-51
2023/08/15 00:45:05;;;;;;;3.17;3.17;;;23.20;99.90;;;;;;5053525;28;20681;-51
2023/08/15 00:47:32;;;;;;;4.10;3.90;;;23.20;99.90;;;;;;5051717;28;20678;-51
2023/08/15 00:50:00;;;;;;;4.67;4.33;;;23.20;99.90;;;;;;5070073;28;20763;-51
2023/08/15 00:52:27;;;;;;;3.13;3.03;;;23.10;99.90;;;;;;5058696;28;20683;-51
2023/08/15 00:54:55;;;;;;;4.00;3.90;;;23.00;99.90;;;;;;5061753;28;20219;-51
2023/08/15 00:57:22;;;;;;;4.37;4.10;;;23.00;99.90;;;;;;5067865;28;20262;-51
2023/08/15 00:59:51;;;;;;;4.17;4.00;;;23.00;99.90;;;;;;5070184;28;20706;-51
2023/08/15 01:02:18;;;;;;;3.63;3.43;;;22.90;99.90;;;;;;5070551;28;20251;-51
2023/08/15 01:04:45;;;;;;;3.93;3.83;;;22.90;99.90;;;;;;5070017;28;20201;-51
2023/08/15 01:07:13;;;;;;;3.67;3.50;;;22.80;99.90;;;;;;5069705;28;20193;-50
2023/08/15 01:09:39;;;;;;;3.73;3.53;;;22.80;99.90;;;;;;5069648;28;20253;-51
2023/08/15 01:12:28;;;;;;;3.50;3.30;;;22.70;99.90;;;;;;5067491;28;20250;-50
2023/08/15 01:15:02;;;;;;;3.87;3.77;;;22.70;99.90;;;;;;5070868;28;20620;-51
2023/08/15 01:17:36;;;;;;;3.83;3.73;;;22.70;99.90;;;;;;5069290;28;20228;-50
2023/08/15 01:20:07;;;;;;;4.50;4.20;;;22.70;99.90;;;;;;5069727;28;20282;-51
2023/08/15 01:22:37;;;;;;;4.27;4.10;;;22.70;99.90;;;;;;5070793;28;20292;-51
2023/08/15 01:25:06;;;;;;;4.23;4.03;;;22.60;99.90;;;;;;5071190;28;20205;-51
2023/08/15 01:27:34;;;;;;;4.53;4.37;;;22.60;99.90;;;;;;5070864;28;20259;-51
2023/08/15 01:30:01;;;;;;;5.73;5.43;;;22.60;99.90;;;;;;5071519;28;20217;-51
2023/08/15 01:32:35;;;;;;;4.50;4.30;;;22.60;99.90;;;;;;5073717;28;20289;-51
2023/08/15 01:35:10;;;;;;;4.07;3.97;;;22.60;99.90;;;;;;5074486;28;20267;-51
2023/08/15 01:37:41;;;;;;;4.50;4.13;;;22.60;99.90;;;;;;5071622;28;20201;-51
2023/08/15 01:40:12;;;;;;;4.63;4.43;;;22.70;99.90;;;;;;5065662;28;20221;-51
2023/08/15 01:42:41;;;;;;;5.03;4.73;;;22.70;99.90;;;;;;5072954;28;20372;-51
2023/08/15 01:45:09;;;;;;;4.87;4.67;;;22.70;99.90;;;;;;5065741;28;20584;-51
2023/08/15 01:47:37;;;;;;;4.80;4.50;;;22.80;99.90;;;;;;5073630;28;20327;-51
2023/08/15 01:50:05;;;;;;;5.73;5.33;;;22.80;99.90;;;;;;5073090;28;20282;-51
2023/08/15 01:52:32;;;;;;;4.40;4.27;;;22.80;99.90;;;;;;5073642;28;20278;-51
2023/08/15 01:54:59;;;;;;;4.07;3.97;;;22.80;99.90;;;;;;5072952;28;20250;-51
2023/08/15 01:57:27;;;;;;;4.03;3.73;;;22.70;99.90;;;;;;5073616;28;20282;-51
2023/08/15 01:59:54;;;;;;;4.87;4.63;;;22.60;99.90;;;;;;5073091;28;20594;-51
2023/08/15 02:02:21;;;;;;;3.90;3.70;;;22.60;99.90;;;;;;5073734;28;20255;-51
2023/08/15 02:04:47;;;;;;;4.67;4.37;;;22.50;99.90;;;;;;5070903;28;20209;-51
2023/08/15 02:07:14;;;;;;;4.93;4.60;;;22.40;99.90;;;;;;5072829;28;20197;-51
2023/08/15 02:09:41;;;;;;;4.40;4.20;;;22.40;99.90;;;;;;5072807;28;20258;-51
2023/08/15 02:12:09;;;;;;;5.13;4.90;;;22.30;99.90;;;;;;5073251;28;20209;-51
2023/08/15 02:14:37;;;;;;;4.03;3.93;;;22.30;99.90;;;;;;5073802;28;20254;-51
2023/08/15 02:17:04;;;;;;;5.37;5.10;;;22.20;99.90;;;;;;5073640;28;20262;-51
2023/08/15 02:19:31;;;;;;;5.10;4.80;;;22.20;99.90;;;;;;5071655;28;20229;-51
2023/08/15 02:21:58;;;;;;;4.53;4.27;;;22.10;99.90;;;;;;5072269;28;20262;-51
2023/08/15 02:24:25;;;;;;;5.53;4.87;;;22.10;99.90;;;;;;5073165;28;20201;-51
2023/08/15 02:26:52;;;;;;;4.93;4.73;;;22.00;99.90;;;;;;5073252;28;20227;-51
2023/08/15 02:29:19;;;;;;;4.90;4.70;;;22.00;99.90;;;;;;5071688;28;20205;-51
2023/08/15 02:31:48;;;;;;;4.13;4.03;;;21.90;99.90;;;;;;5070779;28;20282;-51
2023/08/15 02:34:17;;;;;;;3.87;3.60;;;21.80;99.90;;;;;;5071844;28;20284;-51
2023/08/15 02:36:47;;;;;;;4.40;4.00;;;21.80;99.90;;;;;;5072749;28;20262;-51
2023/08/15 02:39:15;;;;;;;4.53;4.33;;;21.70;99.90;;;;;;5072061;28;20328;-51
2023/08/15 02:41:42;;;;;;;5.43;5.03;;;21.70;99.90;;;;;;5072770;28;20267;-51
2023/08/15 02:44:09;;;;;;;4.40;4.10;;;21.60;99.90;;;;;;5072919;28;20205;-51
2023/08/15 02:46:36;;;;;;;4.63;4.33;;;21.70;99.90;;;;;;5071947;28;20247;-51
2023/08/15 02:49:05;;;;;;;5.43;4.90;;;21.70;99.90;;;;;;5072253;28;20266;-51
2023/08/15 02:51:32;;;;;;;4.40;4.20;;;21.70;99.90;;;;;;5072528;28;20639;-51
2023/08/15 02:53:58;;;;;;;5.33;4.77;;;21.60;99.90;;;;;;5072495;28;20223;-51
2023/08/15 02:56:25;;;;;;;4.40;4.30;;;21.60;99.90;;;;;;5072935;28;20251;-50
2023/08/15 02:58:53;;;;;;;4.20;4.10;;;21.60;99.90;;;;;;5070369;28;20244;-51
2023/08/15 03:01:20;;;;;;;5.17;4.63;;;21.60;99.90;;;;;;5072521;28;20271;-51
2023/08/15 03:03:46;;;;;;;4.17;3.97;;;21.70;99.90;;;;;;5072382;28;20258;-51
2023/08/15 03:06:15;;;;;;;5.17;4.87;;;21.60;99.90;;;;;;5072422;28;20887;-51
2023/08/15 03:08:42;;;;;;;4.40;4.20;;;21.60;99.90;;;;;;5071779;28;20201;-51
2023/08/15 03:11:08;;;;;;;5.07;4.83;;;21.60;99.90;;;;;;5071340;28;20217;-51
2023/08/15 03:13:35;;;;;;;5.83;4.43;;;21.50;99.90;;;;;;5069052;28;20201;-51
2023/08/15 03:16:02;;;;;;;5.00;4.80;;;21.50;99.90;;;;;;5072452;28;20312;-51
2023/08/15 03:18:29;;;;;;;5.03;4.83;;;21.50;99.90;;;;;;5071506;28;20330;-51
2023/08/15 03:20:57;;;;;;;4.90;4.60;;;21.50;99.90;;;;;;5071860;28;20217;-51
2023/08/15 03:23:26;;;;;;;5.87;5.27;;;21.50;99.90;;;;;;5071216;28;20196;-51
2023/08/15 03:25:57;;;;;;;4.83;4.63;;;21.40;99.90;;;;;;5071893;28;20685;-51
2023/08/15 03:28:24;;;;;;;4.77;4.57;;;21.40;99.90;;;;;;5067183;28;20243;-51
2023/08/15 03:30:51;;;;;;;5.73;5.43;;;21.40;99.90;;;;;;5069491;28;20266;-51
2023/08/15 03:33:18;;;;;;;5.60;5.10;;;21.40;99.90;;;;;;5071681;28;20293;-51
2023/08/15 03:35:46;;;;;;;5.97;5.67;;;21.40;99.90;;;;;;5070795;28;20677;-51
2023/08/15 03:38:15;;;;;;;5.57;5.37;;;21.40;99.90;;;;;;5071013;28;21487;-51
2023/08/15 03:40:44;;;;;;;5.73;5.43;;;21.40;99.90;;;;;;5071551;28;20236;-51
2023/08/15 03:43:11;;;;;;;4.60;4.40;;;21.30;99.90;;;;;;5068371;28;20246;-51
2023/08/15 03:45:38;;;;;;;4.87;4.50;;;21.30;99.90;;;;;;5071663;28;20209;-51
2023/08/15 03:48:06;;;;;;;4.53;4.33;;;21.40;99.90;;;;;;5069555;28;20212;-51
2023/08/15 03:50:34;;;;;;;5.07;4.63;;;21.30;99.90;;;;;;5069044;28;20217;-51
2023/08/15 03:53:02;;;;;;;5.70;5.20;;;21.30;99.90;;;;;;5071334;28;20197;-51
2023/08/15 03:55:30;;;;;;;5.00;4.83;;;21.30;99.90;;;;;;5071574;28;20202;-51
2023/08/15 03:58:02;;;;;;;4.53;4.30;;;21.30;99.90;;;;;;5070826;28;20209;-51
2023/08/15 04:00:29;;;;;;;4.57;4.27;;;21.30;99.90;;;;;;5062442;28;20668;-51
2023/08/15 04:02:56;;;;;;;5.37;4.97;;;21.30;99.90;;;;;;5063979;28;20201;-51
2023/08/15 04:05:24;;;;;;;5.80;5.30;;;21.30;99.90;;;;;;5067920;28;20210;-51
2023/08/15 04:07:51;;;;;;;4.70;4.50;;;21.30;99.90;;;;;;5065672;28;20728;-52
2023/08/15 04:10:18;;;;;;;4.67;4.40;;;21.30;99.90;;;;;;5071160;28;20213;-51
2023/08/15 04:12:45;;;;;;;4.77;4.57;;;21.30;99.90;;;;;;5071084;28;20204;-51
2023/08/15 04:15:13;;;;;;;5.43;5.13;;;21.30;99.90;;;;;;5070400;28;20197;-51
2023/08/15 04:17:40;;;;;;;6.30;5.90;;;21.30;99.90;;;;;;5070288;28;20201;-51
2023/08/15 04:20:09;;;;;;;7.67;6.20;;;21.30;99.90;;;;;;5062986;28;20574;-51
2023/08/15 04:22:38;;;;;;;5.87;5.63;;;21.40;99.90;;;;;;5071145;28;20196;-51
2023/08/15 04:25:06;;;;;;;5.93;5.57;;;21.40;99.90;;;;;;5070355;28;20193;-51
2023/08/15 04:27:33;;;;;;;6.07;5.67;;;21.40;99.90;;;;;;5070980;28;20199;-51
2023/08/15 04:30:00;;;;;;;6.40;6.10;;;21.30;99.90;;;;;;5070159;28;20209;-51
2023/08/15 04:32:28;;;;;;;6.07;5.67;;;21.40;99.90;;;;;;5062248;28;20556;-51
2023/08/15 04:34:55;;;;;;;5.73;5.50;;;21.30;99.90;;;;;;5054302;28;20216;-51
2023/08/15 04:37:22;;;;;;;5.83;5.40;;;21.30;99.90;;;;;;5055009;28;20263;-51
2023/08/15 04:39:50;;;;;;;5.93;5.63;;;21.40;99.90;;;;;;5049970;28;20221;-50
2023/08/15 04:42:17;;;;;;;5.70;5.40;;;21.50;99.90;;;;;;5049927;28;20283;-51
2023/08/15 04:44:44;;;;;;;4.80;4.60;;;21.60;99.90;;;;;;5050507;28;20264;-51
2023/08/15 04:47:11;;;;;;;5.63;5.23;;;21.60;99.90;;;;;;5056116;28;20239;-51
2023/08/15 04:49:39;;;;;;;5.10;4.80;;;21.70;99.90;;;;;;5058675;28;20244;-52
2023/08/15 04:52:06;;;;;;;5.53;5.23;;;21.90;99.90;;;;;;5052979;28;20228;-53
2023/08/15 04:54:33;;;;;;;5.23;4.90;;;22.10;99.90;;;;;;5058584;28;20291;-52
2023/08/15 04:57:00;;;;;;;5.97;5.47;;;22.20;99.90;;;;;;5056526;28;20194;-53
2023/08/15 04:59:27;;;;;;;4.97;4.77;;;22.40;99.90;;;;;;5056649;28;20213;-51
2023/08/15 05:01:54;;;;;;;5.20;5.00;;;22.40;99.90;;;;;;5053441;28;20247;-52
2023/08/15 05:04:21;;;;;;;5.27;4.97;;;22.50;99.90;;;;;;5056706;28;20201;-52
2023/08/15 05:06:49;;;;;;;5.90;5.60;;;22.60;99.90;;;;;;5056422;28;20200;-52
2023/08/15 05:09:16;;;;;;;6.27;5.87;;;22.70;99.90;;;;;;5058293;28;20290;-52
2023/08/15 05:11:45;;;;;;;5.50;5.20;;;22.70;99.90;;;;;;5072483;28;20271;-52
2023/08/15 05:14:13;;;;;;;9.47;5.23;;;22.80;99.90;;;;;;5068821;28;20303;-53
2023/08/15 05:16:40;;;;;;;5.53;5.03;;;23.00;99.90;;;;;;5059765;28;20198;-53
2023/08/15 05:19:07;;;;;;;5.50;5.10;;;23.50;99.90;;;;;;5057560;28;20222;-52
2023/08/15 05:21:34;;;;;;;5.10;4.77;;;24.40;99.90;;;;;;5053759;28;20225;-53
2023/08/15 05:24:02;;;;;;;4.70;4.30;;;25.40;99.90;;;;;;5053485;28;20240;-52
2023/08/15 05:26:29;;;;;;;5.53;5.23;;;26.30;99.90;;;;;;5059470;28;20518;-52
2023/08/15 05:28:56;;;;;;;6.50;5.37;;;27.20;99.90;;;;;;5066053;28;20287;-52
2023/08/15 05:31:23;;;;;;;5.93;5.40;;;27.90;99.90;;;;;;5063656;28;20294;-53
2023/08/15 05:33:50;;;;;;;4.68;4.53;;;28.00;99.90;;;;;;5071839;28;20572;-51
2023/08/15 05:36:17;;;;;;;4.38;4.18;;;27.80;99.90;;;;;;5067827;28;20200;-53
2023/08/15 05:38:44;;;;;;;4.30;4.13;;;27.40;99.90;;;;;;5058608;28;20679;-52
2023/08/15 05:41:12;;;;;;;4.72;4.32;;;27.20;99.90;;;;;;5053112;28;20221;-53
2023/08/15 05:43:39;;;;;;;4.78;4.43;;;27.00;99.90;;;;;;5057721;28;20226;-52
2023/08/15 05:46:06;;;;;;;4.18;3.92;;;26.60;99.90;;;;;;5070917;28;20263;-52
2023/08/15 05:48:33;;;;;;;4.88;4.78;;;26.50;99.90;;;;;;5065401;28;20680;-53
2023/08/15 05:51:00;;;;;;;5.13;4.82;;;25.70;99.90;;;;;;5053244;28;20243;-53
2023/08/15 05:53:27;;;;;;;4.47;4.18;;;25.40;99.90;;;;;;5052879;28;20201;-52
2023/08/15 05:55:54;;;;;;;4.82;4.68;;;25.20;99.90;;;;;;5058248;28;20193;-52
2023/08/15 05:58:22;;;;;;;4.30;4.20;;;25.10;99.90;;;;;;5057875;28;20250;-52
2023/08/15 06:00:49;;;;;;;4.80;4.43;;;25.00;99.90;;;;;;5061578;28;20598;-53
2023/08/15 06:03:16;;;;;;;7.17;5.13;;;24.80;99.90;;;;;;5086223;22;20237;-56
2023/08/15 06:05:43;;;;;;;4.47;4.38;;;24.70;99.90;;;;;;5053917;28;20659;-55
2023/08/15 06:08:10;;;;;;;4.95;4.53;;;24.70;99.90;;;;;;5058236;28;20194;-55
2023/08/15 06:10:37;;;;;;;5.07;4.88;;;24.60;99.90;;;;;;5053956;28;20273;-55
2023/08/15 06:13:06;;;;;;;4.80;4.50;;;24.60;99.90;;;;;;5047986;28;20218;-55
2023/08/15 06:15:35;;;;;;;5.80;5.50;;;24.60;99.90;;;;;;5048849;28;20202;-56
2023/08/15 06:18:05;;;;;;;5.13;4.70;;;24.50;99.90;;;;;;5048255;28;20205;-56
2023/08/15 06:20:32;;;;;;;5.10;4.90;;;24.40;99.90;;;;;;5052646;28;20309;-56
2023/08/15 06:23:02;;;;;;;6.53;5.57;;;24.50;99.90;;;;;;5052152;28;20565;-55
2023/08/15 06:25:29;;;;;;;5.93;5.43;;;24.60;99.90;;;;;;5042339;28;20194;-56
2023/08/15 06:27:56;;;;;;;5.70;5.30;;;24.70;99.90;;;;;;5036767;28;20206;-55
2023/08/15 06:30:23;;;;;;;5.20;4.97;;;24.70;99.90;;;;;;5046128;28;20198;-56
2023/08/15 06:32:52;;;;;;;5.70;5.30;;;24.60;99.90;;;;;;5048179;28;20222;-56
2023/08/15 06:35:18;;;;;;;5.47;5.18;;;24.40;99.90;;;;;;5026903;28;20230;-56
2023/08/15 06:37:45;;;;;;;6.17;5.63;;;24.40;99.90;;;;;;5013925;28;20693;-56
2023/08/15 06:40:13;;;;;;;5.70;5.25;;;24.30;99.90;;;;;;5013685;28;20219;-55
2023/08/15 06:42:39;;;;;;;5.70;5.50;;;24.20;99.90;;;;;;5035575;28;20244;-55
2023/08/15 06:45:08;;;;;;;5.73;5.43;;;24.10;99.90;;;;;;5051991;28;20251;-56
2023/08/15 06:47:35;;;;;;;5.97;5.68;;;24.10;99.90;;;;;;5048715;28;20206;-55
2023/08/15 06:50:05;;;;;;;6.70;6.23;;;24.10;99.90;;;;;;5052018;28;20331;-56
2023/08/15 06:52:32;;;;;;;5.33;5.03;;;24.10;99.90;;;;;;5043363;28;20228;-55
2023/08/15 06:54:59;;;;;;;5.40;5.20;;;24.20;99.90;;;;;;5041486;28;20624;-56
2023/08/15 06:57:26;;;;;;;6.03;5.53;;;24.20;99.90;;;;;;5047797;28;20201;-56
2023/08/15 06:59:53;;;;;;;5.27;5.07;;;24.30;99.90;;;;;;5045311;28;20218;-56
2023/08/15 07:02:20;;;;;;;6.33;5.90;;;24.30;99.90;;;;;;5043551;28;20265;-56
2023/08/15 07:04:48;;;;;;;5.33;5.03;;;24.30;99.90;;;;;;5039922;28;20636;-55
2023/08/15 07:07:17;;;;;;;6.83;4.63;;;24.30;99.90;;;;;;5051285;28;20240;-56
2023/08/15 07:09:44;;;;;;;5.70;5.20;;;24.40;99.90;;;;;;5038571;28;20190;-56
2023/08/15 07:12:11;;;;;;;5.17;4.87;;;24.50;99.90;;;;;;5051365;28;20251;-55
2023/08/15 07:14:37;;;;;;;5.53;5.03;;;24.70;99.90;;;;;;5051438;28;20745;-56
2023/08/15 07:17:04;;;;;;;5.57;5.10;;;25.70;99.90;;;;;;5051439;28;20248;-55
2023/08/15 07:19:31;;;;;;;10.13;4.18;;;26.70;99.90;;;;;;5042664;28;20298;-56
2023/08/15 07:21:58;;;;;;;4.10;3.90;;;27.10;99.90;;;;;;5023339;28;20274;-56
2023/08/15 07:24:27;;;;;;;4.60;4.40;;;27.50;99.90;;;;;;5022471;28;20277;-56
2023/08/15 07:26:53;;;;;;;5.78;4.90;;;27.60;99.90;;;;;;5016897;28;20203;-57
2023/08/15 07:29:20;;;;;;;4.93;4.72;;;28.30;99.90;;;;;;5025201;28;20636;-55
2023/08/15 07:31:47;;;;;;;5.95;5.03;;;29.20;99.90;;;;;;5025376;28;20684;-55
2023/08/15 07:34:14;;;;;;;5.90;5.50;;;28.70;99.90;;;;;;5028216;28;20723;-56
2023/08/15 07:36:41;;;;;;;5.30;4.93;;;28.60;99.90;;;;;;5029377;28;20202;-55
2023/08/15 07:39:09;;;;;;;6.20;5.78;;;28.40;99.90;;;;;;5032246;28;20198;-56
2023/08/15 07:41:38;;;;;;;6.95;6.35;;;27.70;99.90;;;;;;5032354;28;20222;-55
2023/08/15 07:44:05;;;;;;;7.38;6.88;;;27.20;99.90;;;;;;5012276;28;20273;-55
2023/08/15 07:46:32;;;;;;;8.90;8.27;;;26.90;99.90;;;;;;5013004;28;20661;-56
2023/08/15 07:48:59;;;;;;;8.65;7.88;;;26.40;99.90;;;;;;5014860;28;20206;-54
2023/08/15 07:51:26;;;;;;;8.55;7.57;;;25.90;99.90;;;;;;5020378;28;20256;-56
2023/08/15 07:53:53;;;;;;;7.10;6.80;;;25.70;99.90;;;;;;5021259;28;20226;-55
2023/08/15 07:56:20;;;;;;;9.23;8.50;;;25.70;99.90;;;;;;5032056;28;20746;-55
2023/08/15 07:58:48;;;;;;;8.75;8.15;;;25.50;99.90;;;;;;5024474;28;20260;-55
2023/08/15 08:01:15;;;;;;;8.05;7.45;;;25.50;99.90;;;;;;5023479;28;20309;-55
2023/08/15 08:03:42;;;;;;;8.65;8.10;;;25.60;99.90;;;;;;5031777;28;20279;-55
2023/08/15 08:06:09;;;;;;;8.90;7.87;;;25.60;99.90;;;;;;5043383;28;20220;-55
2023/08/15 08:08:36;;;;;;;7.50;7.00;;;25.50;99.90;;;;;;5047773;28;20210;-55
2023/08/15 08:11:03;;;;;;;7.68;7.18;;;25.50;99.90;;;;;;5050122;28;20249;-55
2023/08/15 08:13:30;;;;;;;7.32;6.90;;;25.50;99.90;;;;;;5049990;28;20214;-55
2023/08/15 08:15:59;;;;;;;7.37;6.87;;;25.50;99.90;;;;;;5046511;28;20252;-56
2023/08/15 08:18:26;;;;;;;8.25;6.97;;;25.60;99.90;;;;;;5049756;28;20724;-55
2023/08/15 08:20:53;;;;;;;7.60;6.95;;;25.50;99.90;;;;;;5048076;28;20238;-54
2023/08/15 08:23:20;;;;;;;7.95;7.03;;;25.40;99.90;;;;;;5050077;28;20923;-55
2023/08/15 08:25:47;;;;;;;6.67;6.27;;;25.50;99.90;;;;;;5050376;28;20686;-55
2023/08/15 08:28:14;;;;;;;7.22;6.57;;;25.30;99.90;;;;;;5047735;28;20202;-55
2023/08/15 08:30:43;;;;;;;7.07;6.57;;;25.40;99.90;;;;;;5050138;28;20237;-56
2023/08/15 08:33:12;;;;;;;7.17;6.47;;;25.40;99.90;;;;;;5033523;28;20219;-55
2023/08/15 08:35:39;;;;;;;6.10;5.80;;;25.40;99.90;;;;;;5042144;28;20198;-55
2023/08/15 08:38:06;;;;;;;7.40;6.68;;;25.40;99.90;;;;;;5050205;28;20259;-55
2023/08/15 08:40:34;;;;;;;7.33;6.93;;;25.30;99.90;;;;;;5049999;28;20629;-54
2023/08/15 08:43:03;;;;;;;6.47;6.07;;;25.30;99.90;;;;;;5049561;28;20275;-54
2023/08/15 08:45:31;;;;;;;9.18;8.35;;;25.30;99.90;;;;;;5050320;28;20626;-56
2023/08/15 08:48:03;;;;;;;10.10;9.10;;;25.50;99.90;;;;;;5042781;28;20197;-55
2023/08/15 08:50:32;;;;;;;18.30;13.68;;;25.70;99.90;;;;;;5042816;28;20337;-55
2023/08/15 08:52:59;;;;;;;10.55;9.13;;;25.90;99.90;;;;;;5047554;28;20217;-55
2023/08/15 08:55:28;;;;;;;6.53;6.22;;;26.10;99.90;;;;;;5050012;28;20280;-55
2023/08/15 08:57:55;;;;;;;9.70;7.78;;;26.40;99.90;;;;;;5049202;28;20198;-55
2023/08/15 09:00:27;;;;;;;7.72;7.22;;;27.80;99.90;;;;;;5049839;28;21012;-55
2023/08/15 09:02:56;;;;;;;7.55;7.05;;;29.20;99.90;;;;;;5049150;28;20706;-57
2023/08/15 09:05:24;;;;;;;7.43;7.05;;;29.70;99.90;;;;;;5049848;28;20202;-55
2023/08/15 09:07:52;;;;;;;7.90;7.50;;;29.90;99.90;;;;;;5042207;28;20202;-56
2023/08/15 09:10:21;;;;;;;7.60;6.93;;;29.60;99.90;;;;;;5049952;28;20190;-55
2023/08/15 09:12:48;;;;;;;7.93;7.35;;;29.30;99.90;;;;;;5049584;28;20711;-55
2023/08/15 09:15:15;;;;;;;9.23;8.52;;;29.30;99.90;;;;;;5049802;28;20190;-55
2023/08/15 09:17:44;;;;;;;6.95;6.55;;;30.00;99.90;;;;;;5050105;28;20259;-55
2023/08/15 09:20:13;;;;;;;9.45;8.60;;;30.70;99.90;;;;;;5041899;28;20214;-55
2023/08/15 09:22:44;;;;;;;7.95;7.32;;;31.20;99.90;;;;;;5039937;28;20222;-56
2023/08/15 09:25:14;;;;;;;10.35;7.97;;;31.80;99.90;;;;;;5033872;28;20198;-55
2023/08/15 09:27:42;;;;;;;8.10;7.53;;;32.30;99.90;;;;;;5043279;28;20285;-56
2023/08/15 09:30:12;;;;;;;7.43;6.97;;;32.40;99.90;;;;;;5028810;28;20245;-57
2023/08/15 09:32:41;;;;;;;7.63;7.07;;;32.00;99.90;;;;;;5030095;28;20248;-56
2023/08/15 09:35:11;;;;;;;8.38;7.80;;;32.00;99.90;;;;;;5041900;28;20209;-56
2023/08/15 09:37:42;;;;;;;8.25;7.85;;;32.30;99.90;;;;;;5039065;28;20195;-56
2023/08/15 09:40:14;;;;;;;7.28;6.78;;;32.30;99.90;;;;;;5045389;28;20238;-56
2023/08/15 09:42:43;;;;;;;7.13;6.72;;;32.20;99.90;;;;;;5036383;28;20222;-56
2023/08/15 09:45:11;;;;;;;7.00;6.53;;;32.50;99.90;;;;;;5044255;28;20682;-56
2023/08/15 09:47:39;;;;;;;6.00;5.55;;;33.20;99.90;;;;;;5043497;28;20198;-55
2023/08/15 09:50:07;;;;;;;7.40;7.00;;;34.20;99.90;;;;;;5041640;28;20575;-56
2023/08/15 09:52:35;;;;;;;6.45;6.05;;;34.80;99.90;;;;;;5043379;28;20225;-56
2023/08/15 09:55:03;;;;;;;5.85;5.65;;;35.00;99.90;;;;;;5046219;28;20268;-56
2023/08/15 09:57:31;;;;;;;7.35;6.68;;;35.20;99.90;;;;;;5051470;28;20284;-55
2023/08/15 09:59:58;;;;;;;6.47;6.25;;;34.50;99.90;;;;;;5039695;28;20205;-56
2023/08/15 10:02:29;;;;;;;14.23;12.75;;;33.40;99.90;;;;;;5050585;28;20213;-58
2023/08/15 10:05:02;;;;;;;9.90;8.93;;;33.70;99.90;;;;;;5048719;28;20656;-56
2023/08/15 10:07:32;;;;;;;8.45;7.53;;;34.10;99.90;;;;;;5051248;28;20650;-54
2023/08/15 10:10:03;;;;;;;7.88;7.47;;;34.40;99.90;;;;;;5049923;28;20255;-55
2023/08/15 10:12:33;;;;;;;7.18;6.63;;;34.70;99.90;;;;;;5028183;28;20219;-56
2023/08/15 10:15:01;;;;;;;6.30;5.93;;;35.10;99.90;;;;;;5023192;28;20200;-56
2023/08/15 10:17:29;;;;;;;6.65;6.05;;;35.70;99.90;;;;;;5028210;28;20260;-57
2023/08/15 10:20:01;;;;;;;5.10;4.85;;;35.90;99.90;;;;;;5028779;28;20248;-56
2023/08/15 10:22:30;;;;;;;6.38;5.47;;;35.90;99.90;;;;;;5032357;28;20226;-56
2023/08/15 10:25:32;;;;;;;6.03;5.72;;;35.90;99.90;;;;;;5027345;28;20202;-57
2023/08/15 10:27:59;;;;;;;5.13;4.82;;;35.60;99.90;;;;;;5029447;28;20206;-57
2023/08/15 10:30:33;;;;;;;6.75;6.22;;;34.70;99.90;;;;;;5027254;28;20206;-56
2023/08/15 10:33:13;;;;;;;6.78;6.15;;;33.80;99.90;;;;;;5033400;28;20305;-57
2023/08/15 10:35:49;;;;;;;7.15;6.68;;;33.00;99.90;;;;;;5031954;28;20202;-57
2023/08/15 10:38:17;;;;;;;6.93;6.68;;;32.50;99.90;;;;;;5025444;28;20198;-59
2023/08/15 10:40:46;;;;;;;7.07;6.57;;;32.50;99.90;;;;;;5024718;28;20803;-56
2023/08/15 10:43:15;;;;;;;6.70;6.30;;;32.60;99.90;;;;;;5033033;28;20245;-58
2023/08/15 10:45:44;;;;;;;6.63;6.30;;;32.70;99.90;;;;;;5028239;28;20225;-55
2023/08/15 10:48:12;;;;;;;6.70;6.38;;;33.10;99.90;;;;;;5022969;28;20202;-57
2023/08/15 10:50:45;;;;;;;5.95;5.75;;;33.20;99.90;;;;;;5020169;28;20209;-57
2023/08/15 10:53:13;;;;;;;6.05;5.75;;;32.90;99.90;;;;;;5023559;28;20306;-57
2023/08/15 10:55:40;;;;;;;5.82;5.63;;;32.50;99.90;;;;;;5031423;28;20688;-57
2023/08/15 10:58:10;;;;;;;6.30;6.00;;;32.10;99.90;;;;;;5030934;28;20202;-57
2023/08/15 11:00:38;;;;;;;5.95;5.63;;;31.50;99.90;;;;;;5023802;28;20981;-57
2023/08/15 11:03:07;;;;;;;7.00;6.60;;;31.10;99.90;;;;;;5025398;28;20256;-54
2023/08/15 11:05:35;;;;;;;5.40;5.10;;;30.90;99.90;;;;;;5032161;28;20198;-54
2023/08/15 11:08:18;;;;;;;5.35;4.97;;;30.80;99.90;;;;;;5020316;28;20747;-57
2023/08/15 11:10:48;;;;;;;5.28;5.07;;;30.50;99.90;;;;;;5017392;28;20250;-55
2023/08/15 11:13:18;;;;;;;5.20;5.00;;;30.10;99.90;;;;;;5039661;28;20286;-55
2023/08/15 11:15:46;;;;;;;5.78;5.38;;;30.10;99.90;;;;;;5037208;28;20198;-55
2023/08/15 11:18:21;;;;;;;5.60;5.25;;;30.10;99.90;;;;;;5037529;28;20238;-55
2023/08/15 11:20:49;;;;;;;5.95;5.45;;;30.10;99.90;;;;;;5031501;28;20226;-56
2023/08/15 11:23:16;;;;;;;5.53;5.32;;;29.90;99.90;;;;;;5031721;28;20241;-55
2023/08/15 11:25:43;;;;;;;7.88;7.28;;;29.90;99.90;;;;;;5034104;28;20204;-55
2023/08/15 11:28:10;;;;;;;7.88;7.28;;;29.80;99.90;;;;;;5026096;28;20272;-57
2023/08/15 11:30:39;;;;;;;6.50;6.20;;;29.60;99.90;;;;;;5020305;28;20256;-56
2023/08/15 11:33:06;;;;;;;6.72;6.22;;;29.70;99.90;;;;;;5017559;28;20402;-54
2023/08/15 11:35:33;;;;;;;6.55;6.35;;;29.50;99.90;;;;;;5041444;28;20675;-54
2023/08/15 11:38:01;;;;;;;6.43;5.93;;;29.50;99.90;;;;;;5042499;28;20201;-54
2023/08/15 11:40:30;;;;;;;6.55;6.15;;;29.50;99.90;;;;;;5037524;28;20286;-55
2023/08/15 11:42:57;;;;;;;6.55;6.10;;;29.40;99.90;;;;;;5035998;28;20296;-56
2023/08/15 11:45:24;;;;;;;7.65;7.13;;;29.40;99.90;;;;;;5046084;28;20206;-55
2023/08/15 11:48:09;;;;;;;7.78;7.28;;;29.20;99.90;;;;;;5048075;28;20202;-53
2023/08/15 11:50:39;;;;;;;7.40;6.90;;;28.80;99.90;;;;;;5048001;28;20213;-54
2023/08/15 11:53:09;;;;;;;7.97;7.50;;;28.60;99.90;;;;;;5038428;28;20214;-57
2023/08/15 11:55:37;;;;;;;7.72;7.22;;;28.50;99.90;;;;;;5039849;28;20190;-55
2023/08/15 11:58:22;;;;;;;6.85;6.45;;;28.30;99.90;;;;;;5020901;28;20202;-55
2023/08/15 12:00:49;;;;;;;7.38;6.95;;;28.30;99.90;;;;;;5033767;28;20748;-55
2023/08/15 12:03:17;;;;;;;6.60;6.25;;;28.20;99.90;;;;;;5017679;28;20273;-54
2023/08/15 12:05:46;;;;;;;7.53;6.93;;;28.30;99.90;;;;;;5013139;28;20280;-55
2023/08/15 12:08:16;;;;;;;7.68;7.25;;;28.30;99.90;;;;;;5029620;28;20194;-58
2023/08/15 12:10:44;;;;;;;8.35;7.68;;;28.30;99.90;;;;;;5039518;28;20203;-56
2023/08/15 12:13:11;;;;;;;6.50;6.25;;;28.30;99.90;;;;;;5022786;28;20239;-56
2023/08/15 12:15:38;;;;;;;7.18;6.70;;;28.50;99.90;;;;;;5016781;28;20231;-57
2023/08/15 12:18:08;;;;;;;7.30;6.90;;;28.60;99.90;;;;;;5014586;28;20283;-56
2023/08/15 12:20:37;;;;;;;6.22;5.82;;;28.70;99.90;;;;;;5016887;28;20635;-59
2023/08/15 12:23:05;;;;;;;6.32;5.85;;;28.80;99.90;;;;;;5019719;28;20754;-57
2023/08/15 12:25:32;;;;;;;5.40;5.18;;;28.90;99.90;;;;;;5014947;28;20253;-56
2023/08/15 12:27:59;;;;;;;5.80;5.47;;;29.20;99.90;;;;;;5020769;28;20685;-56
2023/08/15 12:30:26;;;;;;;6.88;6.55;;;29.50;99.90;;;;;;5023297;28;20203;-57
2023/08/15 12:32:53;;;;;;;7.30;6.60;;;29.70;99.90;;;;;;5033259;28;20718;-56
2023/08/15 12:35:20;;;;;;;6.30;5.90;;;29.70;99.90;;;;;;5024339;28;20207;-55
2023/08/15 12:37:49;;;;;;;6.00;5.70;;;29.90;99.90;;;;;;5019707;28;20674;-55
2023/08/15 12:40:17;;;;;;;4.80;4.60;;;30.10;99.90;;;;;;5016863;28;21097;-65
2023/08/15 12:42:44;;;;;;;4.90;4.80;;;30.30;99.90;;;;;;5028226;28;20229;-68
2023/08/15 12:45:11;;;;;;;5.05;4.65;;;30.50;99.90;;;;;;5033435;28;20587;-68
2023/08/15 12:47:38;;;;;;;5.78;5.05;;;30.40;99.90;;;;;;5048711;28;20251;-54
2023/08/15 12:50:06;;;;;;;3.95;3.67;;;30.50;99.90;;;;;;5028194;28;20691;-66